メインページ
METAR-TAF:

METAR-TAF

空港 :

Williams Lake, ブリティッシュコロンビア州, カナダ

緯度: 52-11N, 経度: 122-03W, 海抜: 940m

現時点の気象観測

当レポートは45分前の05:00(UTC)に作成
の風 4kt
気温 10°C
湿度 25%
気圧 1015 hPa
視程: 24.1km
晴天

METAR: CYWL 210500Z 09004KT 15SM SKC 10/M09 A2997 RMK SLP168 DENSITY ALT 3200FT

時間: 22:45 (05:45 UTC)

予報

当レポートは5時間7分前の00:38(UTC)に作成
予報は21日の 01時(UTC)から 21日の 13時(UTC)まで有効
の風 6kt
視程: 10km
晴天

TAF: CYWL 210038Z 2101/2113 10006KT P6SM SKC RMK NXT FCST BY 210700Z

4,000以上の空港の気象観測と天気予報(METAR報とTAF報)

利用可能な観測所は地図上に黄色い丸と赤い丸で示す。

丸の上にカーソルを重ねると観測所名を参照できる。

次にクリックすると気象観測と天気予報を参照できる。

マップの切り替え:黒色「×」印の緑ボタンをクリックして拡大、「-」印の緑ボタンをクリックして縮小、緑色の三角印をクリックして隣りの地図に切り替え


METAR-TAF: